createdAt,value
2019-03-10T00:00:02.056Z,1009.4854
2019-03-10T00:00:13.853Z,1009.4568
2019-03-10T00:00:25.667Z,1009.4548
2019-03-10T00:00:37.443Z,1009.3943
2019-03-10T00:00:49.218Z,1009.4012
2019-03-10T00:01:01.163Z,1009.3751
2019-03-10T00:01:12.999Z,1009.3718
2019-03-10T00:01:24.894Z,1009.4017
2019-03-10T00:01:36.801Z,1009.4033
2019-03-10T00:01:48.708Z,1009.4376
2019-03-10T00:02:00.539Z,1009.4508
2019-03-10T00:02:12.427Z,1009.4213
2019-03-10T00:02:24.285Z,1009.3804
2019-03-10T00:02:36.097Z,1009.3956
2019-03-10T00:02:47.987Z,1009.3448
2019-03-10T00:03:00.048Z,1009.3743
2019-03-10T00:03:11.968Z,1009.3923
2019-03-10T00:03:23.890Z,1009.4188
2019-03-10T00:03:35.761Z,1009.3928
2019-03-10T00:03:47.603Z,1009.4533
2019-03-10T00:03:59.399Z,1009.4074
2019-03-10T00:04:11.187Z,1009.445
2019-03-10T00:04:23.001Z,1009.4497
2019-03-10T00:04:34.814Z,1009.3354
2019-03-10T00:04:46.768Z,1009.4422
2019-03-10T00:04:58.632Z,1009.4063
2019-03-10T00:05:10.474Z,1009.3833
2019-03-10T00:05:22.291Z,1009.4332
2019-03-10T00:05:34.208Z,1009.4254
2019-03-10T00:05:46.130Z,1009.4135
2019-03-10T00:05:57.999Z,1009.4512
2019-03-10T00:06:09.883Z,1009.4152
2019-03-10T00:06:21.806Z,1009.4871
2019-03-10T00:06:33.663Z,1009.4381
2019-03-10T00:06:45.576Z,1009.4299
2019-03-10T00:06:57.562Z,1009.3858
2019-03-10T00:07:09.412Z,1009.3673
2019-03-10T00:07:21.235Z,1009.3989
2019-03-10T00:07:33.115Z,1009.364
2019-03-10T00:07:45.024Z,1009.4021
2019-03-10T00:07:56.937Z,1009.4298
2019-03-10T00:08:08.779Z,1009.3972
2019-03-10T00:08:20.660Z,1009.389
2019-03-10T00:08:32.565Z,1009.4332
2019-03-10T00:08:44.520Z,1009.3776
2019-03-10T00:08:56.468Z,1009.3437
2019-03-10T00:09:08.360Z,1009.324
2019-03-10T00:09:20.430Z,1009.3906
2019-03-10T00:09:32.169Z,1009.3793
2019-03-10T00:09:44.032Z,1009.3989
2019-03-10T00:09:55.908Z,1009.3637
2019-03-10T00:10:07.790Z,1009.3956
2019-03-10T00:10:19.615Z,1009.3546
2019-03-10T00:10:31.456Z,1009.3444
2019-03-10T00:10:43.215Z,1009.3301
2019-03-10T00:10:55.085Z,1009.3432
2019-03-10T00:11:06.971Z,1009.3886
2019-03-10T00:11:18.764Z,1009.3755
2019-03-10T00:11:30.609Z,1009.3496
2019-03-10T00:11:42.405Z,1009.3367
2019-03-10T00:11:54.400Z,1009.3329
2019-03-10T00:12:06.186Z,1009.3718
2019-03-10T00:12:18.078Z,1009.346
2019-03-10T00:12:29.932Z,1009.4078
2019-03-10T00:12:41.775Z,1009.3342
2019-03-10T00:12:53.613Z,1009.3228
2019-03-10T00:13:05.438Z,1009.3501
2019-03-10T00:13:17.256Z,1009.3289
2019-03-10T00:13:29.092Z,1009.2998
2019-03-10T00:13:40.959Z,1009.2327
2019-03-10T00:13:52.771Z,1009.3227
2019-03-10T00:14:04.585Z,1009.3284
2019-03-10T00:14:16.353Z,1009.3092
2019-03-10T00:14:28.218Z,1009.3256
2019-03-10T00:14:40.050Z,1009.3337
2019-03-10T00:14:51.934Z,1009.3109
2019-03-10T00:15:03.933Z,1009.3726
2019-03-10T00:15:15.732Z,1009.3121
2019-03-10T00:15:27.686Z,1009.2045
2019-03-10T00:15:39.549Z,1009.3162
2019-03-10T00:15:51.588Z,1009.3415
2019-03-10T00:16:03.436Z,1009.2879
2019-03-10T00:16:15.308Z,1009.2952
2019-03-10T00:16:27.149Z,1009.3524
2019-03-10T00:16:38.991Z,1009.2932
2019-03-10T00:16:50.818Z,1009.2867
2019-03-10T00:17:02.740Z,1009.3451
2019-03-10T00:17:14.536Z,1009.3144
2019-03-10T00:17:26.501Z,1009.3545
2019-03-10T00:17:38.287Z,1009.2698
2019-03-10T00:17:50.069Z,1009.3217
2019-03-10T00:18:01.887Z,1009.325
2019-03-10T00:18:13.689Z,1009.2412
2019-03-10T00:18:26.515Z,1009.3459
2019-03-10T00:18:38.279Z,1009.3557
2019-03-10T00:18:50.113Z,1009.2379
2019-03-10T00:19:01.931Z,1009.2952
2019-03-10T00:19:13.786Z,1009.3545
2019-03-10T00:19:25.647Z,1009.2853
2019-03-10T00:19:37.402Z,1009.395
2019-03-10T00:19:49.249Z,1009.3226
2019-03-10T00:20:01.054Z,1009.2882
2019-03-10T00:20:12.815Z,1009.3029
2019-03-10T00:20:24.715Z,1009.2828
2019-03-10T00:20:36.491Z,1009.3029
2019-03-10T00:20:48.320Z,1009.2689
2019-03-10T00:21:00.173Z,1009.3259
2019-03-10T00:21:12.097Z,1009.3439
2019-03-10T00:21:23.940Z,1009.3458
2019-03-10T00:21:35.828Z,1009.3454
2019-03-10T00:21:47.652Z,1009.3094
2019-03-10T00:21:59.635Z,1009.2833
2019-03-10T00:22:11.438Z,1009.3487
2019-03-10T00:22:23.273Z,1009.2832
2019-03-10T00:22:35.117Z,1009.3238
2019-03-10T00:22:46.881Z,1009.2947
2019-03-10T00:22:58.717Z,1009.3074
2019-03-10T00:23:10.493Z,1009.2865
2019-03-10T00:23:22.419Z,1009.2996
2019-03-10T00:23:34.506Z,1009.2686
2019-03-10T00:23:46.766Z,1009.2354
2019-03-10T00:23:58.743Z,1009.3041
2019-03-10T00:24:10.604Z,1009.2784
2019-03-10T00:24:22.384Z,1009.3082
2019-03-10T00:24:34.211Z,1009.2996
2019-03-10T00:24:46.030Z,1009.2976
2019-03-10T00:24:57.804Z,1009.3945
2019-03-10T00:25:09.600Z,1009.3552
2019-03-10T00:25:21.433Z,1009.3258
2019-03-10T00:25:33.304Z,1009.2951
2019-03-10T00:25:45.148Z,1009.316
2019-03-10T00:25:57.086Z,1009.37
2019-03-10T00:26:08.918Z,1009.3737
2019-03-10T00:26:21.084Z,1009.3176
2019-03-10T00:26:32.566Z,1009.3054
2019-03-10T00:26:44.377Z,1009.3831
2019-03-10T00:26:57.260Z,1009.3634
2019-03-10T00:27:09.120Z,1009.341
2019-03-10T00:27:20.965Z,1009.4015
2019-03-10T00:27:32.800Z,1009.3765
2019-03-10T00:27:44.747Z,1009.3995
2019-03-10T00:27:56.515Z,1009.4187
2019-03-10T00:28:08.301Z,1009.4288
2019-03-10T00:28:20.150Z,1009.3504
2019-03-10T00:28:31.941Z,1009.375
2019-03-10T00:28:43.778Z,1009.3684
2019-03-10T00:28:55.602Z,1009.375
2019-03-10T00:29:07.475Z,1009.4072
2019-03-10T00:29:19.375Z,1009.4252
2019-03-10T00:29:31.224Z,1009.3974
2019-03-10T00:29:43.059Z,1009.3929
2019-03-10T00:29:54.826Z,1009.4191
2019-03-10T00:30:06.735Z,1009.4288
2019-03-10T00:30:18.519Z,1009.424
2019-03-10T00:30:30.297Z,1009.4011
2019-03-10T00:30:42.114Z,1009.375
2019-03-10T00:30:53.884Z,1009.3929
2019-03-10T00:31:05.734Z,1009.4137
2019-03-10T00:31:17.519Z,1009.4109
2019-03-10T00:31:29.355Z,1009.46
2019-03-10T00:31:41.166Z,1009.4076
2019-03-10T00:31:53.056Z,1009.4938
2019-03-10T00:32:05.062Z,1009.3782
2019-03-10T00:32:17.008Z,1009.4829
2019-03-10T00:32:28.833Z,1009.4857
2019-03-10T00:32:40.673Z,1009.4157
2019-03-10T00:32:52.481Z,1009.4023
2019-03-10T00:33:04.380Z,1009.4547
2019-03-10T00:33:16.270Z,1009.4562
2019-03-10T00:33:28.100Z,1009.3728
2019-03-10T00:33:39.880Z,1009.3864
2019-03-10T00:33:51.694Z,1009.3103
2019-03-10T00:34:03.670Z,1009.3778
2019-03-10T00:34:16.723Z,1009.4816
2019-03-10T00:34:28.456Z,1009.4195
2019-03-10T00:34:40.226Z,1009.3936
2019-03-10T00:34:51.995Z,1009.4079
2019-03-10T00:35:03.776Z,1009.4259
2019-03-10T00:35:15.646Z,1009.439
2019-03-10T00:35:27.701Z,1009.4717
2019-03-10T00:35:39.632Z,1009.3895
2019-03-10T00:35:51.445Z,1009.4059
2019-03-10T00:36:03.283Z,1009.4042
2019-03-10T00:36:16.147Z,1009.4615
2019-03-10T00:36:27.979Z,1009.3875
2019-03-10T00:36:39.760Z,1009.4099
2019-03-10T00:36:51.609Z,1009.4497
2019-03-10T00:37:03.456Z,1009.4692
2019-03-10T00:37:15.348Z,1009.4328
2019-03-10T00:37:27.239Z,1009.3466
2019-03-10T00:37:39.086Z,1009.376
2019-03-10T00:37:51.064Z,1009.351
2019-03-10T00:38:03.037Z,1009.369
2019-03-10T00:38:14.946Z,1009.3707
2019-03-10T00:38:26.806Z,1009.4001
2019-03-10T00:38:38.756Z,1009.4001
2019-03-10T00:38:50.634Z,1009.3936
2019-03-10T00:39:02.669Z,1009.4213
2019-03-10T00:39:14.630Z,1009.4312
2019-03-10T00:39:26.419Z,1009.4411
2019-03-10T00:39:38.187Z,1009.3674
2019-03-10T00:39:50.035Z,1009.3604
2019-03-10T00:40:01.887Z,1009.3637
2019-03-10T00:40:13.679Z,1009.3068
2019-03-10T00:40:25.464Z,1009.3081
2019-03-10T00:40:37.262Z,1009.2737
2019-03-10T00:40:49.199Z,1009.3392
2019-03-10T00:41:00.986Z,1009.2905
2019-03-10T00:41:12.791Z,1009.3593
2019-03-10T00:41:24.615Z,1009.3364
2019-03-10T00:41:36.430Z,1009.3253
2019-03-10T00:41:48.239Z,1009.3351
2019-03-10T00:42:00.004Z,1009.3172
2019-03-10T00:42:11.826Z,1009.3126
2019-03-10T00:42:23.637Z,1009.2718
2019-03-10T00:42:35.445Z,1009.3679
2019-03-10T00:42:47.353Z,1009.3143
2019-03-10T00:42:59.198Z,1009.3029
2019-03-10T00:43:11.039Z,1009.239
2019-03-10T00:43:22.915Z,1009.3146
2019-03-10T00:43:34.783Z,1009.3098
2019-03-10T00:43:46.648Z,1009.3262
2019-03-10T00:43:58.574Z,1009.2611
2019-03-10T00:44:10.462Z,1009.2722
2019-03-10T00:44:22.372Z,1009.3571
2019-03-10T00:44:34.195Z,1009.33
2019-03-10T00:44:45.985Z,1009.3278
2019-03-10T00:44:57.772Z,1009.3004
2019-03-10T00:45:09.613Z,1009.287
2019-03-10T00:45:21.392Z,1009.3311
2019-03-10T00:45:33.225Z,1009.3311
2019-03-10T00:45:45.168Z,1009.3016
2019-03-10T00:45:56.995Z,1009.3151
2019-03-10T00:46:09.010Z,1009.3361
2019-03-10T00:46:20.904Z,1009.3185
2019-03-10T00:46:32.664Z,1009.3164
2019-03-10T00:46:45.667Z,1009.3376
2019-03-10T00:46:57.302Z,1009.3245
2019-03-10T00:47:09.092Z,1009.3069
2019-03-10T00:47:20.932Z,1009.3343
2019-03-10T00:47:32.756Z,1009.2693
2019-03-10T00:47:44.597Z,1009.3295
2019-03-10T00:47:56.460Z,1009.3884
2019-03-10T00:48:08.302Z,1009.3376
2019-03-10T00:48:20.101Z,1009.3425
2019-03-10T00:48:52.825Z,1009.3671
2019-03-10T00:49:04.673Z,1009.3311
2019-03-10T00:49:16.453Z,1009.3864
2019-03-10T00:49:28.344Z,1009.354
2019-03-10T00:49:40.189Z,1009.3474
2019-03-10T00:49:52.021Z,1009.2935
2019-03-10T00:50:03.867Z,1009.3392
2019-03-10T00:50:15.699Z,1009.3164
2019-03-10T00:50:27.503Z,1009.371
2019-03-10T00:50:39.348Z,1009.3524
2019-03-10T00:50:51.118Z,1009.3552
2019-03-10T00:51:02.906Z,1009.3814
2019-03-10T00:51:14.839Z,1009.3634
2019-03-10T00:51:26.710Z,1009.3311
2019-03-10T00:51:38.496Z,1009.3245
2019-03-10T00:51:50.339Z,1009.3327
2019-03-10T00:52:02.164Z,1009.3176
2019-03-10T00:52:13.966Z,1009.3334
2019-03-10T00:52:25.857Z,1009.3093
2019-03-10T00:52:37.668Z,1009.2513
2019-03-10T00:52:49.508Z,1009.3179
2019-03-10T00:53:01.312Z,1009.2787
2019-03-10T00:53:13.139Z,1009.2554
2019-03-10T00:53:24.985Z,1009.2701
2019-03-10T00:53:36.822Z,1009.275
2019-03-10T00:53:48.687Z,1009.3078
2019-03-10T00:54:00.523Z,1009.2313
2019-03-10T00:54:12.377Z,1009.2427
2019-03-10T00:54:24.237Z,1009.1925
2019-03-10T00:54:36.006Z,1009.2072
2019-03-10T00:54:47.777Z,1009.2288
2019-03-10T00:54:59.577Z,1009.2432
2019-03-10T00:55:11.504Z,1009.2349
2019-03-10T00:55:23.298Z,1009.2497
2019-03-10T00:55:35.096Z,1009.2824
2019-03-10T00:55:46.969Z,1009.2316
2019-03-10T00:55:58.784Z,1009.2435
2019-03-10T00:56:10.592Z,1009.2628
2019-03-10T00:56:22.357Z,1009.2126
2019-03-10T00:56:34.144Z,1009.2943
2019-03-10T00:56:45.935Z,1009.2404
2019-03-10T00:56:57.788Z,1009.2064
2019-03-10T00:57:09.615Z,1009.1987
2019-03-10T00:57:21.480Z,1009.2248
2019-03-10T00:57:33.269Z,1009.2183
2019-03-10T00:57:45.024Z,1009.2036
2019-03-10T00:57:56.839Z,1009.2105
2019-03-10T00:58:08.642Z,1009.2155
2019-03-10T00:58:20.417Z,1009.2285
2019-03-10T00:58:32.228Z,1009.224
2019-03-10T00:58:44.078Z,1009.2093
2019-03-10T00:58:55.967Z,1009.2159
2019-03-10T00:59:07.748Z,1009.2146
2019-03-10T00:59:19.537Z,1009.2748
2019-03-10T00:59:31.306Z,1009.2048
2019-03-10T00:59:43.084Z,1009.2
2019-03-10T00:59:54.882Z,1009.2048
2019-03-10T01:00:06.733Z,1009.2413
2019-03-10T01:00:18.637Z,1009.204
2019-03-10T01:00:30.627Z,1009.1959
2019-03-10T01:00:42.719Z,1009.1976
2019-03-10T01:00:54.518Z,1009.2008
2019-03-10T01:01:06.293Z,1009.1763
2019-03-10T01:01:18.102Z,1009.2237
2019-03-10T01:01:29.965Z,1009.1768
2019-03-10T01:01:41.821Z,1009.1943
2019-03-10T01:01:53.591Z,1009.1927
2019-03-10T01:02:05.421Z,1009.1607
2019-03-10T01:02:17.200Z,1009.2388
2019-03-10T01:02:28.980Z,1009.2111
2019-03-10T01:02:40.791Z,1009.1755
2019-03-10T01:02:52.658Z,1009.1837
2019-03-10T01:03:04.564Z,1009.2193
2019-03-10T01:03:16.446Z,1009.218
2019-03-10T01:03:28.289Z,1009.2065
2019-03-10T01:03:40.134Z,1009.1776
2019-03-10T01:03:51.942Z,1009.2692
2019-03-10T01:04:03.760Z,1009.225
2019-03-10T01:04:15.540Z,1009.1825
2019-03-10T01:04:27.362Z,1009.1878
2019-03-10T01:04:39.155Z,1009.2005
2019-03-10T01:04:50.968Z,1009.1842
2019-03-10T01:05:02.835Z,1009.238
2019-03-10T01:05:14.692Z,1009.2054
2019-03-10T01:05:26.453Z,1009.1677
2019-03-10T01:05:38.225Z,1009.212
2019-03-10T01:05:50.050Z,1009.1875
2019-03-10T01:06:01.922Z,1009.2099
2019-03-10T01:06:13.721Z,1009.1779
2019-03-10T01:06:25.525Z,1009.1514
2019-03-10T01:06:37.402Z,1009.1936
2019-03-10T01:06:49.274Z,1009.2017
2019-03-10T01:07:01.763Z,1009.2396
2019-03-10T01:07:13.027Z,1009.2103
2019-03-10T01:07:24.984Z,1009.2299
2019-03-10T01:07:36.763Z,1009.1903
2019-03-10T01:07:48.601Z,1009.1662
2019-03-10T01:08:00.436Z,1009.1141
2019-03-10T01:08:12.203Z,1009.1936
2019-03-10T01:08:23.992Z,1009.1596
2019-03-10T01:08:35.801Z,1009.1579
2019-03-10T01:08:47.695Z,1009.1542
2019-03-10T01:08:59.503Z,1009.1559
2019-03-10T01:09:11.367Z,1009.1563
2019-03-10T01:09:23.285Z,1009.1759
2019-03-10T01:09:35.139Z,1009.1415
2019-03-10T01:09:46.966Z,1009.1448
2019-03-10T01:09:58.744Z,1009.0872
2019-03-10T01:10:10.521Z,1009.1166
2019-03-10T01:10:22.291Z,1009.1607
2019-03-10T01:10:34.081Z,1009.1264
2019-03-10T01:10:45.887Z,1009.0758
2019-03-10T01:10:57.719Z,1009.144
2019-03-10T01:11:09.574Z,1009.1149
2019-03-10T01:11:21.344Z,1009.0623
2019-03-10T01:11:33.112Z,1009.1211
2019-03-10T01:11:44.930Z,1009.108
2019-03-10T01:11:56.718Z,1009.117
2019-03-10T01:12:08.538Z,1009.1063
2019-03-10T01:12:20.390Z,1009.0982
2019-03-10T01:12:32.229Z,1009.0245
2019-03-10T01:12:44.041Z,1009.1681
2019-03-10T01:12:55.800Z,1009.0831
2019-03-10T01:13:07.590Z,1009.1681
2019-03-10T01:13:19.420Z,1009.1616
2019-03-10T01:13:31.234Z,1009.1632
2019-03-10T01:13:43.072Z,1009.1587
2019-03-10T01:13:54.846Z,1009.1828
2019-03-10T01:14:06.680Z,1009.2061
2019-03-10T01:14:18.447Z,1009.1915
2019-03-10T01:14:30.234Z,1009.1964
2019-03-10T01:14:42.028Z,1009.2106
2019-03-10T01:14:54.786Z,1009.1661
2019-03-10T01:15:06.539Z,1009.1935
2019-03-10T01:15:18.312Z,1009.1526
2019-03-10T01:15:30.096Z,1009.1661
2019-03-10T01:15:41.945Z,1009.1481
2019-03-10T01:15:53.822Z,1009.1335
2019-03-10T01:16:05.587Z,1009.1105
2019-03-10T01:16:17.356Z,1009.1384
2019-03-10T01:16:29.141Z,1009.1171
2019-03-10T01:16:40.927Z,1009.1257
2019-03-10T01:16:52.730Z,1009.147
2019-03-10T01:17:04.579Z,1009.1257
2019-03-10T01:17:16.429Z,1009.0886
2019-03-10T01:17:28.178Z,1009.1032
2019-03-10T01:17:39.939Z,1009.0918
2019-03-10T01:17:51.717Z,1009.0842
2019-03-10T01:18:03.507Z,1009.0726
2019-03-10T01:18:15.331Z,1009.0742
2019-03-10T01:18:27.172Z,1009.0845
2019-03-10T01:18:39.023Z,1009.0571
2019-03-10T01:18:50.791Z,1009.0751
2019-03-10T01:19:02.552Z,1009.0538
2019-03-10T01:19:14.341Z,1009.0923
2019-03-10T01:19:26.138Z,1009.0498
2019-03-10T01:19:37.920Z,1009.0466
2019-03-10T01:19:49.870Z,1009.0268
2019-03-10T01:20:01.681Z,1009.0531
2019-03-10T01:20:13.494Z,1009.0599
2019-03-10T01:20:25.228Z,1008.9835
2019-03-10T01:20:37.016Z,1008.9963
2019-03-10T01:20:48.799Z,1008.982
2019-03-10T01:21:00.582Z,1009.0016
2019-03-10T01:21:12.379Z,1008.9673
2019-03-10T01:21:24.252Z,1009.0265
2019-03-10T01:21:36.092Z,1008.966
2019-03-10T01:21:47.868Z,1008.9403
2019-03-10T01:21:59.635Z,1008.9273
2019-03-10T01:22:11.441Z,1008.9288
2019-03-10T01:22:23.205Z,1008.9026
2019-03-10T01:22:34.998Z,1008.9587
2019-03-10T01:22:46.821Z,1008.9584
2019-03-10T01:22:58.637Z,1008.9375
2019-03-10T01:23:10.427Z,1008.9674
2019-03-10T01:23:22.222Z,1008.9489
2019-03-10T01:23:34.011Z,1008.9432
2019-03-10T01:23:45.814Z,1008.9738
2019-03-10T01:23:57.606Z,1008.9412
2019-03-10T01:24:09.426Z,1008.9334
2019-03-10T01:24:21.207Z,1008.989
2019-03-10T01:24:32.966Z,1008.9698
2019-03-10T01:24:44.778Z,1008.9208
2019-03-10T01:24:56.557Z,1008.9617
2019-03-10T01:25:08.386Z,1008.9813
2019-03-10T01:25:20.224Z,1008.9895
2019-03-10T01:25:32.063Z,1008.9703
2019-03-10T01:25:43.911Z,1008.9707
2019-03-10T01:25:55.755Z,1008.969
2019-03-10T01:26:08.504Z,1008.9428
2019-03-10T01:26:20.356Z,1008.9826
2019-03-10T01:26:32.120Z,1008.9331
2019-03-10T01:26:43.901Z,1008.9126
2019-03-10T01:26:55.696Z,1008.9191
2019-03-10T01:27:07.497Z,1008.9634
2019-03-10T01:27:19.261Z,1008.9176
2019-03-10T01:27:31.092Z,1008.9356
2019-03-10T01:27:42.905Z,1008.9581
2019-03-10T01:27:54.670Z,1008.9191
2019-03-10T01:28:06.454Z,1008.9126
2019-03-10T01:28:18.259Z,1008.8624
2019-03-10T01:28:30.013Z,1008.8673
2019-03-10T01:28:41.792Z,1008.862
2019-03-10T01:28:53.611Z,1008.8314
2019-03-10T01:29:05.389Z,1008.8967
2019-03-10T01:29:17.192Z,1008.7823
2019-03-10T01:29:28.965Z,1008.8035
2019-03-10T01:29:40.727Z,1008.7414
2019-03-10T01:29:52.547Z,1008.8007
2019-03-10T01:30:04.395Z,1008.6961
2019-03-10T01:30:16.150Z,1008.7529
2019-03-10T01:30:27.907Z,1008.737
2019-03-10T01:30:39.670Z,1008.7299
2019-03-10T01:30:51.492Z,1008.6768
2019-03-10T01:31:03.254Z,1008.737
2019-03-10T01:31:15.075Z,1008.7565
2019-03-10T01:31:26.902Z,1008.7501
2019-03-10T01:31:38.692Z,1008.7583
2019-03-10T01:31:50.464Z,1008.7904
2019-03-10T01:32:02.229Z,1008.7873
2019-03-10T01:32:14.031Z,1008.8166
2019-03-10T01:32:25.846Z,1008.7876
2019-03-10T01:32:37.680Z,1008.8231
2019-03-10T01:32:49.488Z,1008.797
2019-03-10T01:33:02.258Z,1008.7909
2019-03-10T01:33:14.101Z,1008.799
2019-03-10T01:33:25.944Z,1008.7873
2019-03-10T01:33:37.763Z,1008.8007
2019-03-10T01:33:49.470Z,1008.8051
2019-03-10T01:34:01.276Z,1008.8085
2019-03-10T01:34:13.078Z,1008.8002
2019-03-10T01:34:24.848Z,1008.7917
2019-03-10T01:34:36.701Z,1008.7937
2019-03-10T01:34:48.550Z,1008.7818
2019-03-10T01:35:00.372Z,1008.8048
2019-03-10T01:35:12.085Z,1008.7949
2019-03-10T01:35:23.861Z,1008.7835
2019-03-10T01:35:35.652Z,1008.7818
2019-03-10T01:35:47.452Z,1008.7888
2019-03-10T01:35:59.425Z,1008.8342
2019-03-10T01:36:11.218Z,1008.8587
2019-03-10T01:36:23.011Z,1008.8211
2019-03-10T01:36:34.827Z,1008.8162
2019-03-10T01:36:46.574Z,1008.7933
2019-03-10T01:36:58.364Z,1008.7536
2019-03-10T01:37:10.145Z,1008.7961
2019-03-10T01:37:21.936Z,1008.7879
2019-03-10T01:37:33.806Z,1008.7553
2019-03-10T01:37:45.666Z,1008.7651
2019-03-10T01:37:57.524Z,1008.7745
2019-03-10T01:38:09.311Z,1008.7846
2019-03-10T01:38:21.095Z,1008.7732
2019-03-10T01:38:32.891Z,1008.8236
2019-03-10T01:38:44.686Z,1008.7782
2019-03-10T01:38:56.459Z,1008.7532
2019-03-10T01:39:08.316Z,1008.714
2019-03-10T01:39:20.143Z,1008.7369
2019-03-10T01:39:31.948Z,1008.714
2019-03-10T01:39:43.718Z,1008.7205
2019-03-10T01:39:55.513Z,1008.7075
2019-03-10T01:40:07.287Z,1008.7299
2019-03-10T01:40:19.093Z,1008.7249
2019-03-10T01:40:30.928Z,1008.7254
2019-03-10T01:40:42.784Z,1008.6473
2019-03-10T01:40:54.579Z,1008.7581
2019-03-10T01:41:06.466Z,1008.6192
2019-03-10T01:41:18.270Z,1008.644
2019-03-10T01:41:30.052Z,1008.6539
2019-03-10T01:41:41.807Z,1008.6511
2019-03-10T01:41:53.614Z,1008.6567
2019-03-10T01:42:05.453Z,1008.5987
2019-03-10T01:42:17.333Z,1008.613
2019-03-10T01:42:29.216Z,1008.6146
2019-03-10T01:42:41.048Z,1008.6262
2019-03-10T01:42:52.827Z,1008.5954
2019-03-10T01:43:04.596Z,1008.5889
2019-03-10T01:43:16.388Z,1008.6179
2019-03-10T01:43:28.154Z,1008.5349
2019-03-10T01:43:39.957Z,1008.5367
2019-03-10T01:43:51.791Z,1008.5873
2019-03-10T01:44:03.571Z,1008.571
2019-03-10T01:44:15.331Z,1008.6118
2019-03-10T01:44:27.116Z,1008.6392
2019-03-10T01:44:38.893Z,1008.62
2019-03-10T01:44:50.672Z,1008.644
2019-03-10T01:45:02.503Z,1008.5725
2019-03-10T01:45:14.353Z,1008.5968
2019-03-10T01:45:26.092Z,1008.6624
2019-03-10T01:45:37.899Z,1008.7095
2019-03-10T01:45:49.655Z,1008.6833
2019-03-10T01:46:01.475Z,1008.6036
2019-03-10T01:46:13.281Z,1008.6016
2019-03-10T01:46:25.133Z,1008.6032
2019-03-10T01:46:36.962Z,1008.6098
2019-03-10T01:46:48.743Z,1008.6486
2019-03-10T01:47:00.566Z,1008.6829
2019-03-10T01:47:12.363Z,1008.7009
2019-03-10T01:47:24.161Z,1008.6175
2019-03-10T01:47:35.939Z,1008.5995
2019-03-10T01:47:47.730Z,1008.6408
2019-03-10T01:47:59.552Z,1008.6163
2019-03-10T01:48:11.278Z,1008.6175
2019-03-10T01:48:23.049Z,1008.5832
2019-03-10T01:48:34.813Z,1008.6326
2019-03-10T01:48:46.577Z,1008.5901
2019-03-10T01:48:58.400Z,1008.5759
2019-03-10T01:49:10.166Z,1008.5754
2019-03-10T01:49:21.981Z,1008.5889
2019-03-10T01:49:33.741Z,1008.5857
2019-03-10T01:49:45.511Z,1008.5562
2019-03-10T01:49:57.284Z,1008.573
2019-03-10T01:50:09.116Z,1008.6118
2019-03-10T01:50:20.920Z,1008.6024
2019-03-10T01:50:32.683Z,1008.6184
2019-03-10T01:50:44.466Z,1008.5387
2019-03-10T01:50:56.290Z,1008.5345
2019-03-10T01:51:08.146Z,1008.548
2019-03-10T01:51:19.978Z,1008.6036
2019-03-10T01:51:31.803Z,1008.6004
2019-03-10T01:51:43.658Z,1008.5595
2019-03-10T01:51:55.504Z,1008.5398
2019-03-10T01:52:07.303Z,1008.559
2019-03-10T01:52:19.093Z,1008.5472
2019-03-10T01:52:30.865Z,1008.5798
2019-03-10T01:52:42.644Z,1008.5946
2019-03-10T01:52:54.418Z,1008.5925
2019-03-10T01:53:06.254Z,1008.5554
2019-03-10T01:53:25.160Z,1008.597
2019-03-10T01:53:30.888Z,1008.5446
2019-03-10T01:53:42.714Z,1008.5435
2019-03-10T01:53:54.563Z,1008.5446
2019-03-10T01:54:06.400Z,1008.5312
2019-03-10T01:54:18.222Z,1008.5246
2019-03-10T01:54:29.959Z,1008.5557
2019-03-10T01:54:41.750Z,1008.5438
2019-03-10T01:54:53.547Z,1008.5814
2019-03-10T01:55:05.342Z,1008.4984
2019-03-10T01:55:17.247Z,1008.5279
2019-03-10T01:55:29.061Z,1008.5598
2019-03-10T01:55:40.908Z,1008.5242
2019-03-10T01:55:52.687Z,1008.5181
2019-03-10T01:56:04.471Z,1008.5471
2019-03-10T01:56:16.370Z,1008.5545
2019-03-10T01:56:28.157Z,1008.4865
2019-03-10T01:56:39.974Z,1008.5352
2019-03-10T01:56:51.766Z,1008.5013
2019-03-10T01:57:03.591Z,1008.4653
2019-03-10T01:57:15.447Z,1008.4992
2019-03-10T01:57:28.232Z,1008.4877
2019-03-10T01:57:40.011Z,1008.4453
2019-03-10T01:57:51.844Z,1008.4698
2019-03-10T01:58:03.704Z,1008.4301
2019-03-10T01:58:15.505Z,1008.4693
2019-03-10T01:58:28.790Z,1008.4412
2019-03-10T01:58:40.131Z,1008.4453
2019-03-10T01:58:51.944Z,1008.3892
2019-03-10T01:59:03.721Z,1008.44
2019-03-10T01:59:15.499Z,1008.4235
2019-03-10T01:59:27.304Z,1008.4579
2019-03-10T01:59:39.069Z,1008.4138
2019-03-10T01:59:50.885Z,1008.4093
2019-03-10T02:00:02.707Z,1008.484
2019-03-10T02:00:14.477Z,1008.4562
2019-03-10T02:00:26.246Z,1008.3978
2019-03-10T02:00:38.017Z,1008.4334
2019-03-10T02:00:49.788Z,1008.4317
2019-03-10T02:01:01.566Z,1008.4077
2019-03-10T02:01:13.359Z,1008.3962
2019-03-10T02:01:25.195Z,1008.3881
2019-03-10T02:01:36.986Z,1008.3799
2019-03-10T02:01:48.748Z,1008.4306
2019-03-10T02:02:00.532Z,1008.3443
2019-03-10T02:02:12.321Z,1008.3999
2019-03-10T02:02:25.824Z,1008.3656
2019-03-10T02:02:36.844Z,1008.3492
2019-03-10T02:02:48.642Z,1008.3635
2019-03-10T02:03:00.453Z,1008.3526
2019-03-10T02:03:12.234Z,1008.3754
2019-03-10T02:03:24.033Z,1008.3775
2019-03-10T02:03:35.798Z,1008.3517
2019-03-10T02:03:47.574Z,1008.3582
2019-03-10T02:03:59.408Z,1008.3468
2019-03-10T02:04:11.232Z,1008.3015
2019-03-10T02:04:22.997Z,1008.3244
2019-03-10T02:04:34.804Z,1008.3326
2019-03-10T02:04:46.581Z,1008.3281
2019-03-10T02:04:58.352Z,1008.3032
2019-03-10T02:05:10.149Z,1008.3167
2019-03-10T02:05:21.995Z,1008.3428
2019-03-10T02:05:33.862Z,1008.3612
2019-03-10T02:05:45.647Z,1008.3919
2019-03-10T02:05:57.433Z,1008.342
2019-03-10T02:06:09.241Z,1008.3682
2019-03-10T02:06:21.118Z,1008.3556
2019-03-10T02:06:33.016Z,1008.372
2019-03-10T02:06:44.876Z,1008.351
2019-03-10T02:06:56.681Z,1008.3768
2019-03-10T02:07:08.448Z,1008.3685
2019-03-10T02:07:20.268Z,1008.3657
2019-03-10T02:07:32.121Z,1008.3646
2019-03-10T02:07:43.879Z,1008.38
2019-03-10T02:07:55.679Z,1008.3385
2019-03-10T02:08:07.460Z,1008.4017
2019-03-10T02:08:19.230Z,1008.3646
2019-03-10T02:08:31.016Z,1008.3789
2019-03-10T02:08:42.877Z,1008.4333
2019-03-10T02:08:54.662Z,1008.3601
2019-03-10T02:09:06.476Z,1008.3957
2019-03-10T02:09:18.250Z,1008.376
2019-03-10T02:09:30.032Z,1008.3818
2019-03-10T02:09:41.827Z,1008.3372
2019-03-10T02:09:53.627Z,1008.3912
2019-03-10T02:10:05.464Z,1008.3328
2019-03-10T02:10:17.309Z,1008.359
2019-03-10T02:10:29.100Z,1008.3168
2019-03-10T02:10:40.913Z,1008.3316
2019-03-10T02:10:52.693Z,1008.2809
2019-03-10T02:11:04.473Z,1008.3315
2019-03-10T02:11:16.297Z,1008.3239
2019-03-10T02:11:28.258Z,1008.3332
2019-03-10T02:11:40.051Z,1008.3325
2019-03-10T02:11:51.881Z,1008.2654
2019-03-10T02:12:03.639Z,1008.3275
2019-03-10T02:12:15.433Z,1008.2801
2019-03-10T02:12:27.244Z,1008.2544
2019-03-10T02:12:39.016Z,1008.2561
2019-03-10T02:12:50.817Z,1008.2899
2019-03-10T02:13:02.626Z,1008.2528
2019-03-10T02:13:14.520Z,1008.2576
2019-03-10T02:13:26.340Z,1008.2496
2019-03-10T02:13:38.133Z,1008.2887
2019-03-10T02:13:49.946Z,1008.2335
2019-03-10T02:14:01.753Z,1008.2564
2019-03-10T02:14:13.566Z,1008.2626
2019-03-10T02:14:25.358Z,1008.2368
2019-03-10T02:14:37.153Z,1008.2446
2019-03-10T02:14:49.004Z,1008.2859
2019-03-10T02:15:00.816Z,1008.2528
2019-03-10T02:15:12.610Z,1008.2622
2019-03-10T02:15:24.376Z,1008.2528
2019-03-10T02:15:36.166Z,1008.2659
2019-03-10T02:15:48.033Z,1008.2948